Time;durP1;ratioP1;P1;durP2;ratioP2;P2;SDS_P1;SDS_P2;PMS_P1;PMS_P2;Temp;Humidity;BMP_temperature;BMP_pressure;BME280_temperature;BME280_humidity;BME280_pressure;Samples;Min_cycle;Max_cycle;Signal;HPM_P1;HPM_P2
2023/12/10 00:04:59;;;;;;;65.00;60.85;;;6.20;85.40;;;;;;12552540;28;20351;-74
2023/12/10 00:11:02;;;;;;;79.70;75.13;;;6.30;85.40;;;;;;12534860;28;20037;-75
2023/12/10 00:17:04;;;;;;;67.75;63.65;;;6.30;85.30;;;;;;12535516;28;20033;-75
2023/12/10 00:23:07;;;;;;;58.58;54.60;;;6.20;85.20;;;;;;12561357;28;20044;-75
2023/12/10 00:29:12;;;;;;;63.45;60.08;;;6.20;85.10;;;;;;12560928;28;20359;-75
2023/12/10 00:35:20;;;;;;;65.57;61.45;;;6.10;85.20;;;;;;12560817;28;20040;-75
2023/12/10 00:41:21;;;;;;;67.15;63.40;;;6.20;85.30;;;;;;12561381;28;20033;-75
2023/12/10 00:47:23;;;;;;;59.53;55.80;;;6.20;85.30;;;;;;12542424;28;20355;-75
2023/12/10 00:53:24;;;;;;;70.00;66.00;;;6.20;85.10;;;;;;12559855;28;20036;-75
2023/12/10 00:59:26;;;;;;;75.55;71.15;;;6.20;85.10;;;;;;12510023;28;20033;-75
2023/12/10 01:05:28;;;;;;;72.60;67.97;;;6.10;85.20;;;;;;12559284;28;20033;-74
2023/12/10 01:11:30;;;;;;;53.95;50.70;;;6.10;85.20;;;;;;12559041;28;20021;-74
2023/12/10 01:17:32;;;;;;;63.30;59.03;;;6.20;85.20;;;;;;12558747;28;20040;-74
2023/12/10 01:23:34;;;;;;;70.82;66.78;;;6.20;85.30;;;;;;12541474;28;20429;-76
2023/12/10 01:29:36;;;;;;;65.18;61.13;;;6.20;85.50;;;;;;12557421;28;20044;-75
2023/12/10 01:35:37;;;;;;;66.47;62.35;;;6.20;85.30;;;;;;12557905;28;20344;-75
2023/12/10 01:41:39;;;;;;;83.40;77.57;;;6.20;85.50;;;;;;12539819;28;20040;-75
2023/12/10 01:47:44;;;;;;;82.10;76.93;;;6.20;85.40;;;;;;12557260;28;20344;-75
2023/12/10 01:53:46;;;;;;;71.03;66.45;;;6.00;85.90;;;;;;12556935;28;20351;-75
2023/12/10 01:59:47;;;;;;;65.18;60.33;;;6.00;86.10;;;;;;12522565;28;20036;-75
2023/12/10 02:05:50;;;;;;;79.68;74.65;;;6.10;86.20;;;;;;12556406;28;20040;-75
2023/12/10 02:11:52;;;;;;;70.97;66.05;;;6.20;86.10;;;;;;12556221;28;20455;-75
2023/12/10 02:17:54;;;;;;;73.55;69.25;;;6.30;86.00;;;;;;12555890;28;20036;-75
2023/12/10 02:24:05;;;;;;;79.65;74.93;;;6.30;86.00;;;;;;12555645;28;20044;-73
2023/12/10 02:30:09;;;;;;;61.30;57.67;;;6.30;86.00;;;;;;12555308;28;20021;-73
2023/12/10 02:36:10;;;;;;;80.32;76.43;;;6.20;86.10;;;;;;12537419;28;20337;-73
2023/12/10 02:42:12;;;;;;;70.60;66.57;;;6.20;86.00;;;;;;12537162;28;20036;-73
2023/12/10 02:48:14;;;;;;;59.95;55.90;;;6.20;86.10;;;;;;12536780;28;20032;-73
2023/12/10 02:54:15;;;;;;;72.88;68.90;;;6.20;86.20;;;;;;12536592;28;20033;-73
2023/12/10 03:00:17;;;;;;;76.82;72.50;;;6.20;86.10;;;;;;12536758;28;20037;-73
2023/12/10 03:06:18;;;;;;;62.42;58.45;;;6.20;86.00;;;;;;12536491;28;20040;-73
2023/12/10 03:12:20;;;;;;;71.97;67.38;;;6.20;86.00;;;;;;12553896;28;20021;-72
2023/12/10 03:18:22;;;;;;;65.15;61.15;;;6.10;86.10;;;;;;12553726;28;20435;-73
2023/12/10 03:24:23;;;;;;;52.50;49.03;;;6.10;86.00;;;;;;12553598;28;20033;-72
2023/12/10 03:30:25;;;;;;;45.55;42.00;;;6.00;86.00;;;;;;12553398;28;20432;-72
2023/12/10 03:36:26;;;;;;;69.85;65.88;;;5.90;86.00;;;;;;12553495;28;20036;-73
2023/12/10 03:42:28;;;;;;;51.65;48.40;;;5.90;86.00;;;;;;12519125;28;20029;-73
2023/12/10 03:48:29;;;;;;;64.47;60.22;;;5.90;86.00;;;;;;12535363;28;20047;-73
2023/12/10 03:54:31;;;;;;;44.75;41.75;;;5.90;85.90;;;;;;12539843;28;20037;-72
2023/12/10 04:00:33;;;;;;;51.05;47.58;;;5.80;85.90;;;;;;12562464;28;20021;-73
2023/12/10 04:06:42;;;;;;;68.60;64.63;;;5.80;85.90;;;;;;12562104;28;20040;-73
2023/12/10 04:12:43;;;;;;;78.55;74.40;;;5.90;85.90;;;;;;12561876;28;20032;-76
2023/12/10 04:18:45;;;;;;;58.83;54.88;;;5.90;86.00;;;;;;12561681;28;20029;-76
2023/12/10 04:24:46;;;;;;;54.63;50.42;;;6.00;85.90;;;;;;12561222;28;20036;-75
2023/12/10 04:30:48;;;;;;;60.83;57.35;;;5.90;85.70;;;;;;12543286;28;20033;-75
2023/12/10 04:36:49;;;;;;;62.58;58.17;;;5.90;85.90;;;;;;12543173;28;20037;-75
2023/12/10 04:42:51;;;;;;;54.20;50.38;;;5.90;85.90;;;;;;12542673;28;20033;-76
2023/12/10 04:48:52;;;;;;;63.10;58.22;;;5.90;85.90;;;;;;12560047;28;20029;-76
2023/12/10 04:54:54;;;;;;;70.63;65.40;;;5.90;85.80;;;;;;12542903;28;20392;-76
2023/12/10 05:00:56;;;;;;;71.22;66.47;;;5.80;85.80;;;;;;12541866;28;20029;-75
2023/12/10 05:06:57;;;;;;;75.82;70.07;;;5.80;85.80;;;;;;12558087;28;20033;-76
2023/12/10 05:12:59;;;;;;;77.38;72.35;;;5.80;85.80;;;;;;12559128;28;20029;-76
2023/12/10 05:19:00;;;;;;;71.85;67.05;;;5.70;85.80;;;;;;12558871;28;20029;-76
2023/12/10 05:25:03;;;;;;;82.32;76.30;;;5.70;85.80;;;;;;12540717;28;20032;-76
2023/12/10 05:31:05;;;;;;;67.03;61.65;;;5.70;85.80;;;;;;12558298;28;20435;-76
2023/12/10 05:37:06;;;;;;;62.38;57.25;;;5.70;85.80;;;;;;12557983;28;20029;-76
2023/12/10 05:43:08;;;;;;;43.85;39.78;;;5.70;85.80;;;;;;12557639;28;20062;-75
2023/12/10 05:49:09;;;;;;;88.28;81.85;;;5.70;85.90;;;;;;12557312;28;20037;-76
2023/12/10 05:55:11;;;;;;;62.47;57.58;;;5.70;85.90;;;;;;12557097;28;20033;-75
2023/12/10 06:01:13;;;;;;;74.97;69.63;;;5.60;85.90;;;;;;12556841;28;20037;-76
2023/12/10 06:07:15;;;;;;;56.35;51.85;;;5.60;85.90;;;;;;12557213;28;20032;-75
2023/12/10 06:13:16;;;;;;;72.90;68.32;;;5.60;85.90;;;;;;12556290;28;20316;-75
2023/12/10 06:19:18;;;;;;;65.05;58.92;;;5.70;85.90;;;;;;12555698;28;20032;-75
2023/12/10 06:25:19;;;;;;;77.90;72.47;;;5.60;85.90;;;;;;12555644;28;20039;-75
2023/12/10 06:31:21;;;;;;;80.50;74.78;;;5.60;86.30;;;;;;12537451;28;20037;-75
2023/12/10 06:37:23;;;;;;;58.67;54.00;;;5.70;86.30;;;;;;12537452;28;20033;-75
2023/12/10 06:43:26;;;;;;;78.07;72.68;;;5.70;86.30;;;;;;12554990;28;20036;-75
2023/12/10 06:49:27;;;;;;;56.13;50.78;;;5.70;86.10;;;;;;12554583;28;20036;-75
2023/12/10 06:55:29;;;;;;;55.03;50.33;;;5.60;86.10;;;;;;12525897;23;20048;-76
2023/12/10 07:01:30;;;;;;;76.68;70.72;;;5.60;86.00;;;;;;12554369;28;20032;-76
2023/12/10 07:07:32;;;;;;;65.30;60.20;;;5.50;86.10;;;;;;12536538;28;20045;-75
2023/12/10 07:13:33;;;;;;;74.63;68.00;;;5.50;86.10;;;;;;12553968;28;20021;-76
2023/12/10 07:19:35;;;;;;;64.78;58.78;;;5.50;86.20;;;;;;12553754;28;20029;-76
2023/12/10 07:25:37;;;;;;;96.70;89.40;;;5.50;86.20;;;;;;12519417;28;20353;-76
2023/12/10 07:31:38;;;;;;;85.60;79.00;;;5.60;86.30;;;;;;12544442;28;20447;-75
2023/12/10 07:37:40;;;;;;;74.25;68.63;;;5.70;86.50;;;;;;12563605;28;20029;-76
2023/12/10 07:43:42;;;;;;;73.07;67.68;;;5.70;86.50;;;;;;12563383;28;20041;-76
2023/12/10 07:49:44;;;;;;;55.35;50.85;;;5.70;86.40;;;;;;12545312;28;20036;-75
2023/12/10 07:55:45;;;;;;;57.08;52.65;;;5.80;86.50;;;;;;12562781;28;20032;-75
2023/12/10 08:01:47;;;;;;;88.95;82.45;;;5.80;86.30;;;;;;12544777;28;20033;-75
2023/12/10 08:07:49;;;;;;;77.15;72.25;;;5.80;86.50;;;;;;12562168;28;20029;-75
2023/12/10 08:13:51;;;;;;;61.53;56.70;;;5.80;86.60;;;;;;12543942;28;20044;-75
2023/12/10 08:19:53;;;;;;;61.25;55.67;;;5.80;86.50;;;;;;12543957;28;20029;-76
2023/12/10 08:25:54;;;;;;;80.18;74.53;;;5.70;86.40;;;;;;12562070;28;20439;-75
2023/12/10 08:31:56;;;;;;;60.97;55.67;;;5.70;86.70;;;;;;12561766;28;20346;-76
2023/12/10 08:37:57;;;;;;;81.40;76.03;;;5.80;86.80;;;;;;12560650;28;20037;-75
2023/12/10 08:43:59;;;;;;;64.78;60.35;;;5.80;86.70;;;;;;12560370;28;20032;-75
2023/12/10 08:50:02;;;;;;;80.55;75.20;;;5.90;86.80;;;;;;12542385;28;20036;-75
2023/12/10 08:56:04;;;;;;;90.28;84.68;;;5.90;86.60;;;;;;12559990;28;20033;-76
2023/12/10 09:02:06;;;;;;;69.78;64.88;;;5.90;86.60;;;;;;12559669;28;20036;-75
2023/12/10 09:08:08;;;;;;;89.82;84.03;;;5.90;86.50;;;;;;12559286;28;20033;-75
2023/12/10 09:14:11;;;;;;;81.15;73.97;;;5.90;86.70;;;;;;12558954;28;20031;-76
2023/12/10 09:20:12;;;;;;;89.43;83.13;;;6.00;86.70;;;;;;12558870;28;20356;-75
2023/12/10 09:26:14;;;;;;;75.13;70.20;;;6.10;86.80;;;;;;12558456;28;20036;-76
2023/12/10 09:32:16;;;;;;;77.85;73.18;;;6.20;86.60;;;;;;12558248;28;20032;-76
2023/12/10 09:38:18;;;;;;;87.25;81.25;;;6.00;86.60;;;;;;12558058;28;20036;-76
2023/12/10 09:44:20;;;;;;;69.82;65.43;;;6.10;86.70;;;;;;12557778;28;20028;-75
2023/12/10 09:50:23;;;;;;;98.88;93.60;;;6.20;86.60;;;;;;12538976;28;20040;-75
2023/12/10 09:56:25;;;;;;;88.15;82.95;;;6.20;86.50;;;;;;12539342;28;20036;-76
2023/12/10 10:02:32;;;;;;;108.60;100.65;;;6.20;86.40;;;;;;12557174;28;20077;-75
2023/12/10 10:08:33;;;;;;;95.75;90.22;;;6.20;86.70;;;;;;12538787;28;20039;-75
2023/12/10 10:14:35;;;;;;;92.50;86.65;;;6.20;86.70;;;;;;12556149;28;20367;-76
2023/12/10 10:20:38;;;;;;;104.35;97.45;;;6.20;86.70;;;;;;12539497;28;20025;-76
2023/12/10 10:26:40;;;;;;;83.03;76.80;;;6.10;86.50;;;;;;12555500;28;20033;-75
2023/12/10 10:32:43;;;;;;;109.32;101.93;;;6.20;86.70;;;;;;12555387;28;20032;-76
2023/12/10 10:38:45;;;;;;;86.32;79.97;;;6.20;86.40;;;;;;12555196;28;20032;-76
2023/12/10 10:44:47;;;;;;;106.40;99.00;;;6.10;86.40;;;;;;12554876;28;20044;-76
2023/12/10 10:50:49;;;;;;;88.45;82.60;;;6.20;86.40;;;;;;12554467;28;20033;-75
2023/12/10 10:56:51;;;;;;;69.80;64.65;;;6.10;86.50;;;;;;12554271;28;20033;-75
2023/12/10 11:02:54;;;;;;;105.47;97.78;;;6.20;86.30;;;;;;12535754;28;20041;-76
2023/12/10 11:08:59;;;;;;;87.43;81.00;;;6.20;86.10;;;;;;12536141;28;20359;-76
2023/12/10 11:15:01;;;;;;;85.57;79.93;;;6.20;86.30;;;;;;12553923;28;20025;-76
2023/12/10 11:21:03;;;;;;;84.93;79.50;;;6.20;86.30;;;;;;12536048;28;20452;-75
2023/12/10 11:27:11;;;;;;;117.50;110.40;;;6.30;86.20;;;;;;12535956;28;20036;-75
2023/12/10 11:33:14;;;;;;;123.80;115.90;;;6.40;86.30;;;;;;12535795;28;20029;-75
2023/12/10 11:39:16;;;;;;;130.82;122.80;;;6.40;86.20;;;;;;12553406;28;20029;-76
2023/12/10 11:45:18;;;;;;;108.25;101.38;;;6.40;86.10;;;;;;12535567;28;20036;-75
2023/12/10 11:51:20;;;;;;;128.35;119.65;;;6.50;86.30;;;;;;12553000;28;20486;-76
2023/12/10 11:57:22;;;;;;;135.60;127.75;;;6.50;86.40;;;;;;12552939;28;20029;-75
2023/12/10 12:03:24;;;;;;;130.25;123.10;;;6.60;86.80;;;;;;12535160;28;20455;-75
2023/12/10 12:09:26;;;;;;;136.02;128.88;;;6.70;86.70;;;;;;12552607;28;20040;-75
2023/12/10 12:15:27;;;;;;;133.68;126.68;;;6.80;86.50;;;;;;12557686;28;20025;-75
2023/12/10 12:21:29;;;;;;;132.30;125.07;;;6.80;86.20;;;;;;12561629;28;20025;-75
2023/12/10 12:27:31;;;;;;;192.35;182.27;;;6.80;86.40;;;;;;12561289;28;20037;-75
2023/12/10 12:33:32;;;;;;;145.68;137.75;;;6.90;86.20;;;;;;12543031;28;20439;-75
2023/12/10 12:39:34;;;;;;;159.40;151.07;;;6.90;86.20;;;;;;12560777;28;20036;-75
2023/12/10 12:45:36;;;;;;;132.45;125.57;;;6.90;86.00;;;;;;12561160;28;20037;-75
2023/12/10 12:51:38;;;;;;;169.50;160.15;;;6.90;86.00;;;;;;12560802;28;20029;-75
2023/12/10 12:57:39;;;;;;;210.68;199.20;;;7.00;85.90;;;;;;12560096;28;20040;-75
2023/12/10 13:03:41;;;;;;;153.80;145.38;;;7.10;86.00;;;;;;12559614;28;20036;-75
2023/12/10 13:09:43;;;;;;;152.43;144.45;;;7.10;86.00;;;;;;12541606;28;20419;-75
2023/12/10 13:15:45;;;;;;;183.73;174.55;;;7.10;85.80;;;;;;12559098;28;20029;-75
2023/12/10 13:21:48;;;;;;;209.38;198.25;;;7.00;85.80;;;;;;12541679;28;20370;-75
2023/12/10 13:27:49;;;;;;;167.32;157.63;;;7.10;85.90;;;;;;12523421;28;20032;-75
2023/12/10 13:33:51;;;;;;;164.80;155.98;;;7.20;86.10;;;;;;12558247;28;20032;-76
2023/12/10 13:39:53;;;;;;;150.10;142.45;;;7.50;86.20;;;;;;12557947;28;20036;-74
2023/12/10 13:45:55;;;;;;;77.80;72.80;;;7.60;86.10;;;;;;12539753;28;20044;-74
2023/12/10 13:51:57;;;;;;;77.63;72.53;;;7.80;85.90;;;;;;12539519;28;20029;-73
2023/12/10 13:57:59;;;;;;;61.00;56.10;;;8.00;85.70;;;;;;12539850;28;20041;-73
2023/12/10 14:04:01;;;;;;;58.80;52.97;;;8.00;85.70;;;;;;12556776;28;20028;-74
2023/12/10 14:10:04;;;;;;;48.85;43.65;;;7.90;85.90;;;;;;12556454;28;20040;-73
2023/12/10 14:16:06;;;;;;;48.28;38.70;;;8.10;86.00;;;;;;12556348;28;20036;-73
2023/12/10 14:22:08;;;;;;;41.97;34.95;;;8.30;85.90;;;;;;12556655;28;20028;-73
2023/12/10 14:28:11;;;;;;;44.60;33.17;;;8.50;85.90;;;;;;12555665;28;20037;-74
2023/12/10 14:34:12;;;;;;;50.03;32.63;;;8.70;85.60;;;;;;12555434;28;20028;-73
2023/12/10 14:40:14;;;;;;;37.13;32.72;;;8.60;85.90;;;;;;12554970;28;20029;-73
2023/12/10 14:46:16;;;;;;;38.80;34.63;;;8.20;86.10;;;;;;12554989;28;20048;-73
2023/12/10 14:52:18;;;;;;;44.05;40.20;;;7.90;86.40;;;;;;12560468;22;20372;-75
2023/12/10 14:58:20;;;;;;;77.55;72.00;;;7.80;86.60;;;;;;12536746;28;20048;-75
2023/12/10 15:04:23;;;;;;;119.22;112.82;;;7.60;86.60;;;;;;12536797;28;20045;-74
2023/12/10 15:10:25;;;;;;;137.00;129.88;;;7.50;86.70;;;;;;12520018;28;20048;-74
2023/12/10 15:16:27;;;;;;;152.40;143.50;;;7.40;86.60;;;;;;12536201;28;20032;-72
2023/12/10 15:22:29;;;;;;;183.57;174.20;;;7.20;86.70;;;;;;12553888;28;20347;-72
2023/12/10 15:28:33;;;;;;;143.43;134.98;;;7.10;86.80;;;;;;12551233;28;20096;-72
2023/12/10 15:34:35;;;;;;;146.65;138.70;;;7.00;86.70;;;;;;12535077;28;20051;-72
2023/12/10 15:40:37;;;;;;;137.40;130.45;;;6.90;86.80;;;;;;12527297;28;20041;-72
2023/12/10 15:46:38;;;;;;;143.20;135.75;;;6.80;86.70;;;;;;12486195;28;20368;-73
2023/12/10 15:52:40;;;;;;;120.25;113.55;;;6.70;86.70;;;;;;12511930;28;20033;-73
2023/12/10 15:58:42;;;;;;;125.78;118.75;;;6.70;86.80;;;;;;12513887;28;20034;-73
2023/12/10 16:04:44;;;;;;;92.05;86.20;;;6.60;86.70;;;;;;12512923;28;20029;-73
2023/12/10 16:10:46;;;;;;;89.70;83.35;;;6.60;86.70;;;;;;12479127;28;20045;-73
2023/12/10 16:16:47;;;;;;;80.90;74.38;;;6.50;86.50;;;;;;12513039;28;20030;-73
2023/12/10 16:22:50;;;;;;;74.82;68.70;;;6.20;86.60;;;;;;12512080;28;20034;-73
2023/12/10 16:28:53;;;;;;;70.30;65.03;;;6.20;86.80;;;;;;12511749;28;20037;-72
2023/12/10 16:34:54;;;;;;;80.85;73.85;;;6.20;86.90;;;;;;12511556;28;20041;-72
2023/12/10 16:40:56;;;;;;;65.13;59.22;;;6.20;86.80;;;;;;12493867;28;20048;-72
2023/12/10 16:46:58;;;;;;;70.30;64.20;;;6.30;86.80;;;;;;12493804;28;20048;-72
2023/12/10 16:53:00;;;;;;;93.55;86.35;;;6.20;86.60;;;;;;12510715;28;20029;-72
2023/12/10 16:59:02;;;;;;;73.88;68.28;;;6.20;86.80;;;;;;12476417;28;20040;-72
2023/12/10 17:05:04;;;;;;;71.97;65.63;;;6.20;87.00;;;;;;12492664;28;20040;-72
2023/12/10 17:11:06;;;;;;;75.55;69.22;;;6.20;86.90;;;;;;12475954;28;20048;-72
2023/12/10 17:17:08;;;;;;;60.75;56.03;;;6.10;87.00;;;;;;12510360;28;20036;-72
2023/12/10 17:23:09;;;;;;;80.63;73.55;;;6.20;87.10;;;;;;12491693;28;20436;-72
2023/12/10 17:29:11;;;;;;;76.28;70.80;;;6.20;87.00;;;;;;12508947;28;20033;-72
2023/12/10 17:35:13;;;;;;;88.57;82.35;;;6.30;87.10;;;;;;12508826;28;20039;-72
2023/12/10 17:41:15;;;;;;;81.82;74.78;;;6.30;87.00;;;;;;12490871;28;20025;-72
2023/12/10 17:47:17;;;;;;;109.57;102.65;;;6.30;86.90;;;;;;12490556;28;20033;-72
2023/12/10 17:53:18;;;;;;;85.88;80.35;;;6.20;87.00;;;;;;12474441;28;20044;-72
2023/12/10 17:59:20;;;;;;;77.30;71.28;;;6.20;87.00;;;;;;12507402;28;20391;-72
2023/12/10 18:05:22;;;;;;;71.20;65.45;;;6.20;87.20;;;;;;12489734;28;20036;-72
2023/12/10 18:11:24;;;;;;;79.85;74.72;;;6.20;87.10;;;;;;12506390;28;20037;-72
2023/12/10 18:17:25;;;;;;;60.97;55.85;;;6.20;87.10;;;;;;12506716;28;20033;-72
2023/12/10 18:23:27;;;;;;;91.55;85.40;;;6.20;87.10;;;;;;12506520;28;20040;-72
2023/12/10 18:29:29;;;;;;;75.38;68.72;;;6.20;87.10;;;;;;12506184;28;20360;-72
2023/12/10 18:35:31;;;;;;;54.80;50.85;;;6.20;87.10;;;;;;12488346;28;20046;-72
2023/12/10 18:41:32;;;;;;;83.60;78.35;;;6.10;87.30;;;;;;12516701;28;20355;-72
2023/12/10 18:47:34;;;;;;;79.15;73.60;;;6.10;87.20;;;;;;12554872;28;20033;-72
2023/12/10 18:53:36;;;;;;;73.30;67.90;;;6.20;87.10;;;;;;12536804;28;20450;-72
2023/12/10 18:59:38;;;;;;;70.40;65.05;;;6.10;87.10;;;;;;12554555;28;20355;-73
2023/12/10 19:05:40;;;;;;;69.75;64.57;;;6.20;87.10;;;;;;12536847;28;20243;-72
2023/12/10 19:11:42;;;;;;;60.53;54.40;;;6.00;86.90;;;;;;12554024;28;20043;-72
2023/12/10 19:17:44;;;;;;;76.05;66.97;;;6.00;87.00;;;;;;12536292;28;20029;-75
2023/12/10 19:23:45;;;;;;;77.20;71.38;;;5.90;87.00;;;;;;12519107;28;20455;-76
2023/12/10 19:29:47;;;;;;;60.97;53.78;;;5.80;86.90;;;;;;12553696;28;20036;-75
2023/12/10 19:35:49;;;;;;;70.00;63.58;;;5.70;87.00;;;;;;12553539;28;20029;-76
2023/12/10 19:41:51;;;;;;;56.25;45.50;;;5.70;87.00;;;;;;12535754;28;20040;-76
2023/12/10 19:47:53;;;;;;;39.55;35.58;;;5.50;86.90;;;;;;12535326;28;20359;-76
2023/12/10 19:53:54;;;;;;;38.85;35.58;;;5.50;87.10;;;;;;12553067;28;20029;-76
2023/12/10 19:59:56;;;;;;;44.70;40.22;;;5.50;87.00;;;;;;12552975;28;20044;-75
2023/12/10 20:05:59;;;;;;;44.38;39.85;;;5.50;87.00;;;;;;12553577;28;20025;-75
2023/12/10 20:12:00;;;;;;;50.15;44.35;;;5.50;87.20;;;;;;12552677;28;20092;-75
2023/12/10 20:18:02;;;;;;;43.13;39.20;;;5.50;87.10;;;;;;12518378;28;20037;-75
2023/12/10 20:24:05;;;;;;;45.00;41.45;;;5.60;87.10;;;;;;12552397;28;20041;-75
2023/12/10 20:30:08;;;;;;;67.03;62.63;;;5.60;87.00;;;;;;12552227;28;20037;-76
2023/12/10 20:36:09;;;;;;;67.00;61.58;;;5.60;87.20;;;;;;12556684;28;20028;-75
2023/12/10 20:42:11;;;;;;;47.03;43.15;;;5.70;87.10;;;;;;12560815;28;20028;-75
2023/12/10 20:48:13;;;;;;;64.68;60.42;;;5.60;86.70;;;;;;12510125;28;20049;-75
2023/12/10 20:54:15;;;;;;;48.50;45.60;;;5.50;87.10;;;;;;12542514;28;20033;-76
2023/12/10 21:00:17;;;;;;;42.67;32.33;;;5.60;87.10;;;;;;12542286;28;20032;-75
2023/12/10 21:06:21;;;;;;;70.18;65.35;;;5.50;87.00;;;;;;12543342;28;20053;-75
2023/12/10 21:12:23;;;;;;;45.05;38.60;;;5.40;86.80;;;;;;12559386;28;20056;-75
2023/12/10 21:18:26;;;;;;;58.38;54.38;;;5.20;87.10;;;;;;12541573;28;20355;-75
2023/12/10 21:24:28;;;;;;;49.28;40.40;;;5.40;87.30;;;;;;12508923;28;20048;-76
2023/12/10 21:30:30;;;;;;;56.88;52.47;;;5.50;87.30;;;;;;12558568;28;20029;-75
2023/12/10 21:36:32;;;;;;;56.17;51.47;;;5.60;87.30;;;;;;12540564;28;20029;-76
2023/12/10 21:42:34;;;;;;;143.45;83.53;;;5.70;87.20;;;;;;12558053;28;20036;-76
2023/12/10 21:48:35;;;;;;;54.80;50.67;;;5.60;87.00;;;;;;12556742;28;20028;-75
2023/12/10 21:54:37;;;;;;;61.53;57.05;;;5.30;86.70;;;;;;12557389;28;20033;-75
2023/12/10 22:00:39;;;;;;;63.95;60.17;;;5.20;87.00;;;;;;12557149;28;20040;-76
2023/12/10 22:06:40;;;;;;;32.75;29.98;;;5.20;87.10;;;;;;12523463;28;20045;-75
2023/12/10 22:12:42;;;;;;;70.82;57.17;;;5.30;87.10;;;;;;12556548;28;20033;-76
2023/12/10 22:18:44;;;;;;;57.38;53.97;;;5.20;86.80;;;;;;12538497;28;20033;-76
2023/12/10 22:24:46;;;;;;;68.25;64.13;;;5.00;86.70;;;;;;12538358;28;20239;-76
2023/12/10 22:30:47;;;;;;;34.47;31.92;;;5.00;87.00;;;;;;12555666;28;20033;-76
2023/12/10 22:36:50;;;;;;;48.67;44.65;;;5.00;86.80;;;;;;12555536;28;20024;-75
2023/12/10 22:42:51;;;;;;;58.63;50.78;;;4.90;86.90;;;;;;12555294;28;20025;-76
2023/12/10 22:48:54;;;;;;;67.15;62.53;;;4.90;86.70;;;;;;12537520;28;20044;-72
2023/12/10 22:54:56;;;;;;;49.72;46.42;;;4.90;86.90;;;;;;12542553;23;20053;-72
2023/12/10 23:00:58;;;;;;;40.10;36.95;;;5.00;86.90;;;;;;12520317;28;20461;-72
2023/12/10 23:06:59;;;;;;;37.85;34.83;;;5.00;86.90;;;;;;12554336;28;20056;-72
2023/12/10 23:13:01;;;;;;;52.00;48.33;;;5.20;86.90;;;;;;12554091;28;20025;-72
2023/12/10 23:19:04;;;;;;;49.13;45.70;;;5.20;86.90;;;;;;12554002;28;20440;-72
2023/12/10 23:25:06;;;;;;;43.22;40.10;;;5.10;86.60;;;;;;12553799;28;20036;-73
2023/12/10 23:31:08;;;;;;;37.88;35.05;;;4.90;86.60;;;;;;12553578;28;20040;-72
2023/12/10 23:37:10;;;;;;;35.22;32.42;;;4.80;86.80;;;;;;12553590;28;20092;-73
2023/12/10 23:43:44;;;;;;;40.55;36.70;;;5.00;86.90;;;;;;12553435;28;20039;-72
2023/12/10 23:50:05;;;;;;;45.20;41.95;;;5.10;86.60;;;;;;12553051;28;20071;-73
2023/12/10 23:56:07;;;;;;;60.90;56.65;;;5.00;86.50;;;;;;12553099;28;20028;-73
